sensor_id;sensor_type;location;lat;lon;timestamp;P1;durP1;ratioP1;P2;durP2;ratioP2
18142;SDS011;9197;50.930;3.140;2024-01-16T00:01:01;5.73;;;2.80;;
18142;SDS011;9197;50.930;3.140;2024-01-16T00:03:29;8.43;;;2.67;;
18142;SDS011;9197;50.930;3.140;2024-01-16T00:05:56;5.90;;;3.60;;
18142;SDS011;9197;50.930;3.140;2024-01-16T00:08:24;6.53;;;3.13;;
18142;SDS011;9197;50.930;3.140;2024-01-16T00:10:51;6.13;;;3.03;;
18142;SDS011;9197;50.930;3.140;2024-01-16T00:13:18;5.90;;;2.87;;
18142;SDS011;9197;50.930;3.140;2024-01-16T00:15:47;7.43;;;2.57;;
18142;SDS011;9197;50.930;3.140;2024-01-16T00:18:14;4.53;;;2.77;;
18142;SDS011;9197;50.930;3.140;2024-01-16T00:20:42;5.50;;;3.00;;
18142;SDS011;9197;50.930;3.140;2024-01-16T00:23:09;7.27;;;3.77;;
18142;SDS011;9197;50.930;3.140;2024-01-16T00:25:36;7.33;;;2.87;;
18142;SDS011;9197;50.930;3.140;2024-01-16T00:28:04;5.60;;;2.47;;
18142;SDS011;9197;50.930;3.140;2024-01-16T00:30:31;5.20;;;3.03;;
18142;SDS011;9197;50.930;3.140;2024-01-16T00:33:00;4.27;;;2.43;;
18142;SDS011;9197;50.930;3.140;2024-01-16T00:35:28;5.27;;;2.53;;
18142;SDS011;9197;50.930;3.140;2024-01-16T00:37:55;5.47;;;2.60;;
18142;SDS011;9197;50.930;3.140;2024-01-16T00:40:22;4.47;;;2.53;;
18142;SDS011;9197;50.930;3.140;2024-01-16T00:42:49;5.83;;;2.47;;
18142;SDS011;9197;50.930;3.140;2024-01-16T00:45:17;6.87;;;2.57;;
18142;SDS011;9197;50.930;3.140;2024-01-16T00:47:44;3.80;;;2.20;;
18142;SDS011;9197;50.930;3.140;2024-01-16T00:50:12;4.70;;;2.73;;
18142;SDS011;9197;50.930;3.140;2024-01-16T00:52:40;6.60;;;2.40;;
18142;SDS011;9197;50.930;3.140;2024-01-16T00:55:08;5.47;;;2.80;;
18142;SDS011;9197;50.930;3.140;2024-01-16T00:57:35;4.00;;;2.40;;
18142;SDS011;9197;50.930;3.140;2024-01-16T01:00:02;4.90;;;2.80;;
18142;SDS011;9197;50.930;3.140;2024-01-16T01:02:30;8.30;;;3.03;;
18142;SDS011;9197;50.930;3.140;2024-01-16T01:04:57;6.10;;;2.67;;
18142;SDS011;9197;50.930;3.140;2024-01-16T01:07:26;4.13;;;1.97;;
18142;SDS011;9197;50.930;3.140;2024-01-16T01:09:53;3.37;;;2.30;;
18142;SDS011;9197;50.930;3.140;2024-01-16T01:12:20;8.83;;;2.57;;
18142;SDS011;9197;50.930;3.140;2024-01-16T01:14:48;3.40;;;2.63;;
18142;SDS011;9197;50.930;3.140;2024-01-16T01:17:15;7.53;;;2.50;;
18142;SDS011;9197;50.930;3.140;2024-01-16T01:19:42;12.07;;;2.57;;
18142;SDS011;9197;50.930;3.140;2024-01-16T01:22:11;7.00;;;2.53;;
18142;SDS011;9197;50.930;3.140;2024-01-16T01:24:40;7.10;;;2.27;;
18142;SDS011;9197;50.930;3.140;2024-01-16T01:27:07;8.17;;;2.77;;
18142;SDS011;9197;50.930;3.140;2024-01-16T01:29:34;7.00;;;2.47;;
18142;SDS011;9197;50.930;3.140;2024-01-16T01:32:01;5.77;;;3.03;;
18142;SDS011;9197;50.930;3.140;2024-01-16T01:34:28;6.03;;;2.57;;
18142;SDS011;9197;50.930;3.140;2024-01-16T01:36:56;3.60;;;2.57;;
18142;SDS011;9197;50.930;3.140;2024-01-16T01:39:23;5.90;;;2.67;;
18142;SDS011;9197;50.930;3.140;2024-01-16T01:41:51;7.67;;;2.43;;
18142;SDS011;9197;50.930;3.140;2024-01-16T01:44:19;5.77;;;2.40;;
18142;SDS011;9197;50.930;3.140;2024-01-16T01:46:46;7.60;;;2.10;;
18142;SDS011;9197;50.930;3.140;2024-01-16T01:49:13;4.10;;;2.37;;
18142;SDS011;9197;50.930;3.140;2024-01-16T01:51:41;5.83;;;2.80;;
18142;SDS011;9197;50.930;3.140;2024-01-16T01:54:09;4.90;;;2.37;;
18142;SDS011;9197;50.930;3.140;2024-01-16T01:56:36;6.03;;;2.30;;
18142;SDS011;9197;50.930;3.140;2024-01-16T01:59:05;3.20;;;1.90;;
18142;SDS011;9197;50.930;3.140;2024-01-16T02:01:33;8.13;;;2.30;;
18142;SDS011;9197;50.930;3.140;2024-01-16T02:04:01;4.50;;;2.17;;
18142;SDS011;9197;50.930;3.140;2024-01-16T02:06:29;5.27;;;2.63;;
18142;SDS011;9197;50.930;3.140;2024-01-16T02:08:57;3.83;;;1.80;;
18142;SDS011;9197;50.930;3.140;2024-01-16T02:11:24;6.47;;;2.23;;
18142;SDS011;9197;50.930;3.140;2024-01-16T02:13:51;3.17;;;2.03;;
18142;SDS011;9197;50.930;3.140;2024-01-16T02:16:21;4.37;;;2.53;;
18142;SDS011;9197;50.930;3.140;2024-01-16T02:18:49;8.00;;;2.33;;
18142;SDS011;9197;50.930;3.140;2024-01-16T02:21:17;5.70;;;2.30;;
18142;SDS011;9197;50.930;3.140;2024-01-16T02:23:46;11.87;;;2.67;;
18142;SDS011;9197;50.930;3.140;2024-01-16T02:26:14;6.27;;;2.80;;
18142;SDS011;9197;50.930;3.140;2024-01-16T02:28:41;5.23;;;2.23;;
18142;SDS011;9197;50.930;3.140;2024-01-16T02:31:09;5.63;;;2.57;;
18142;SDS011;9197;50.930;3.140;2024-01-16T02:33:35;3.27;;;2.10;;
18142;SDS011;9197;50.930;3.140;2024-01-16T02:36:03;7.07;;;2.10;;
18142;SDS011;9197;50.930;3.140;2024-01-16T02:38:30;3.13;;;2.43;;
18142;SDS011;9197;50.930;3.140;2024-01-16T02:40:59;6.80;;;1.90;;
18142;SDS011;9197;50.930;3.140;2024-01-16T02:43:26;5.20;;;2.57;;
18142;SDS011;9197;50.930;3.140;2024-01-16T02:45:53;5.47;;;2.67;;
18142;SDS011;9197;50.930;3.140;2024-01-16T02:48:20;7.43;;;2.10;;
18142;SDS011;9197;50.930;3.140;2024-01-16T02:50:47;5.13;;;2.37;;
18142;SDS011;9197;50.930;3.140;2024-01-16T02:53:15;6.33;;;2.73;;
18142;SDS011;9197;50.930;3.140;2024-01-16T02:55:42;3.80;;;2.03;;
18142;SDS011;9197;50.930;3.140;2024-01-16T02:58:11;8.80;;;2.43;;
18142;SDS011;9197;50.930;3.140;2024-01-16T03:00:38;5.83;;;2.20;;
18142;SDS011;9197;50.930;3.140;2024-01-16T03:03:05;5.50;;;2.27;;
18142;SDS011;9197;50.930;3.140;2024-01-16T03:05:33;6.00;;;3.03;;
18142;SDS011;9197;50.930;3.140;2024-01-16T03:08:00;6.70;;;1.90;;
18142;SDS011;9197;50.930;3.140;2024-01-16T03:10:27;3.53;;;2.10;;
18142;SDS011;9197;50.930;3.140;2024-01-16T03:12:54;8.20;;;2.47;;
18142;SDS011;9197;50.930;3.140;2024-01-16T03:15:23;3.73;;;2.33;;
18142;SDS011;9197;50.930;3.140;2024-01-16T03:17:51;7.60;;;2.07;;
18142;SDS011;9197;50.930;3.140;2024-01-16T03:20:18;4.00;;;2.47;;
18142;SDS011;9197;50.930;3.140;2024-01-16T03:22:45;7.83;;;2.63;;
18142;SDS011;9197;50.930;3.140;2024-01-16T03:25:13;4.00;;;2.13;;
18142;SDS011;9197;50.930;3.140;2024-01-16T03:27:40;5.63;;;2.07;;
18142;SDS011;9197;50.930;3.140;2024-01-16T03:30:07;5.77;;;2.03;;
18142;SDS011;9197;50.930;3.140;2024-01-16T03:32:36;6.73;;;2.13;;
18142;SDS011;9197;50.930;3.140;2024-01-16T03:35:04;7.67;;;2.27;;
18142;SDS011;9197;50.930;3.140;2024-01-16T03:37:32;8.67;;;2.50;;
18142;SDS011;9197;50.930;3.140;2024-01-16T03:39:59;4.13;;;2.40;;
18142;SDS011;9197;50.930;3.140;2024-01-16T03:42:27;3.03;;;1.73;;
18142;SDS011;9197;50.930;3.140;2024-01-16T03:44:54;3.63;;;1.70;;
18142;SDS011;9197;50.930;3.140;2024-01-16T03:47:22;2.23;;;1.87;;
18142;SDS011;9197;50.930;3.140;2024-01-16T03:49:50;6.27;;;1.80;;
18142;SDS011;9197;50.930;3.140;2024-01-16T03:52:18;9.00;;;2.60;;
18142;SDS011;9197;50.930;3.140;2024-01-16T03:54:45;6.73;;;2.47;;
18142;SDS011;9197;50.930;3.140;2024-01-16T03:57:12;4.97;;;1.90;;
18142;SDS011;9197;50.930;3.140;2024-01-16T03:59:39;3.83;;;1.80;;
18142;SDS011;9197;50.930;3.140;2024-01-16T04:02:07;3.67;;;2.17;;
18142;SDS011;9197;50.930;3.140;2024-01-16T04:04:34;5.80;;;1.97;;
18142;SDS011;9197;50.930;3.140;2024-01-16T04:07:03;6.93;;;2.33;;
18142;SDS011;9197;50.930;3.140;2024-01-16T04:09:30;4.60;;;2.93;;
18142;SDS011;9197;50.930;3.140;2024-01-16T04:11:57;3.77;;;1.80;;
18142;SDS011;9197;50.930;3.140;2024-01-16T04:14:25;4.47;;;1.80;;
18142;SDS011;9197;50.930;3.140;2024-01-16T04:16:52;4.43;;;1.63;;
18142;SDS011;9197;50.930;3.140;2024-01-16T04:19:20;4.83;;;1.90;;
18142;SDS011;9197;50.930;3.140;2024-01-16T04:21:47;8.43;;;1.63;;
18142;SDS011;9197;50.930;3.140;2024-01-16T04:24:16;6.03;;;1.80;;
18142;SDS011;9197;50.930;3.140;2024-01-16T04:26:43;6.80;;;2.63;;
18142;SDS011;9197;50.930;3.140;2024-01-16T04:29:10;4.37;;;1.90;;
18142;SDS011;9197;50.930;3.140;2024-01-16T04:31:39;5.30;;;1.70;;
18142;SDS011;9197;50.930;3.140;2024-01-16T04:34:07;3.67;;;1.87;;
18142;SDS011;9197;50.930;3.140;2024-01-16T04:36:34;3.90;;;1.70;;
18142;SDS011;9197;50.930;3.140;2024-01-16T04:39:01;6.30;;;1.80;;
18142;SDS011;9197;50.930;3.140;2024-01-16T04:41:30;6.00;;;2.20;;
18142;SDS011;9197;50.930;3.140;2024-01-16T04:43:57;2.57;;;1.90;;
18142;SDS011;9197;50.930;3.140;2024-01-16T04:46:25;4.60;;;1.60;;
18142;SDS011;9197;50.930;3.140;2024-01-16T04:48:52;4.17;;;2.00;;
18142;SDS011;9197;50.930;3.140;2024-01-16T04:51:20;6.67;;;2.10;;
18142;SDS011;9197;50.930;3.140;2024-01-16T04:53:47;4.03;;;2.10;;
18142;SDS011;9197;50.930;3.140;2024-01-16T04:56:14;3.60;;;1.97;;
18142;SDS011;9197;50.930;3.140;2024-01-16T04:58:45;4.80;;;2.30;;
18142;SDS011;9197;50.930;3.140;2024-01-16T05:01:13;4.93;;;1.60;;
18142;SDS011;9197;50.930;3.140;2024-01-16T05:03:42;8.53;;;2.10;;
18142;SDS011;9197;50.930;3.140;2024-01-16T05:06:12;1.97;;;1.77;;
18142;SDS011;9197;50.930;3.140;2024-01-16T05:08:40;5.50;;;1.90;;
18142;SDS011;9197;50.930;3.140;2024-01-16T05:11:07;7.77;;;1.67;;
18142;SDS011;9197;50.930;3.140;2024-01-16T05:13:34;8.33;;;2.33;;
18142;SDS011;9197;50.930;3.140;2024-01-16T05:16:03;3.17;;;1.73;;
18142;SDS011;9197;50.930;3.140;2024-01-16T05:18:30;3.30;;;1.80;;
18142;SDS011;9197;50.930;3.140;2024-01-16T05:20:58;3.30;;;2.03;;
18142;SDS011;9197;50.930;3.140;2024-01-16T05:23:27;5.23;;;1.90;;
18142;SDS011;9197;50.930;3.140;2024-01-16T05:25:54;2.43;;;1.73;;
18142;SDS011;9197;50.930;3.140;2024-01-16T05:28:22;7.13;;;1.67;;
18142;SDS011;9197;50.930;3.140;2024-01-16T05:30:49;2.37;;;1.57;;
18142;SDS011;9197;50.930;3.140;2024-01-16T05:33:17;2.33;;;1.67;;
18142;SDS011;9197;50.930;3.140;2024-01-16T05:35:45;5.23;;;1.93;;
18142;SDS011;9197;50.930;3.140;2024-01-16T05:38:12;4.90;;;1.70;;
18142;SDS011;9197;50.930;3.140;2024-01-16T05:40:39;3.37;;;1.80;;
18142;SDS011;9197;50.930;3.140;2024-01-16T05:43:06;5.23;;;1.83;;
18142;SDS011;9197;50.930;3.140;2024-01-16T05:45:34;3.33;;;1.43;;
18142;SDS011;9197;50.930;3.140;2024-01-16T05:48:01;4.20;;;1.70;;
18142;SDS011;9197;50.930;3.140;2024-01-16T05:50:30;2.87;;;1.50;;
18142;SDS011;9197;50.930;3.140;2024-01-16T05:52:57;6.43;;;1.67;;
18142;SDS011;9197;50.930;3.140;2024-01-16T05:55:24;4.43;;;2.13;;
18142;SDS011;9197;50.930;3.140;2024-01-16T05:57:51;2.83;;;1.87;;
18142;SDS011;9197;50.930;3.140;2024-01-16T06:00:19;3.60;;;2.00;;
18142;SDS011;9197;50.930;3.140;2024-01-16T06:02:47;3.40;;;2.00;;
18142;SDS011;9197;50.930;3.140;2024-01-16T06:05:15;3.07;;;1.37;;
18142;SDS011;9197;50.930;3.140;2024-01-16T06:07:43;8.10;;;1.80;;
18142;SDS011;9197;50.930;3.140;2024-01-16T06:10:11;3.87;;;1.57;;
18142;SDS011;9197;50.930;3.140;2024-01-16T06:12:38;3.57;;;1.63;;
18142;SDS011;9197;50.930;3.140;2024-01-16T06:15:06;8.17;;;2.30;;
18142;SDS011;9197;50.930;3.140;2024-01-16T06:17:34;4.77;;;1.67;;
18142;SDS011;9197;50.930;3.140;2024-01-16T06:20:01;6.20;;;2.07;;
18142;SDS011;9197;50.930;3.140;2024-01-16T06:22:29;4.97;;;1.83;;
18142;SDS011;9197;50.930;3.140;2024-01-16T06:24:58;3.20;;;1.43;;
18142;SDS011;9197;50.930;3.140;2024-01-16T06:27:26;4.27;;;1.83;;
18142;SDS011;9197;50.930;3.140;2024-01-16T06:29:54;3.67;;;1.80;;
18142;SDS011;9197;50.930;3.140;2024-01-16T06:32:21;8.17;;;2.47;;
18142;SDS011;9197;50.930;3.140;2024-01-16T06:34:48;6.03;;;2.30;;
18142;SDS011;9197;50.930;3.140;2024-01-16T06:37:16;6.73;;;2.43;;
18142;SDS011;9197;50.930;3.140;2024-01-16T06:39:43;3.90;;;2.03;;
18142;SDS011;9197;50.930;3.140;2024-01-16T06:42:12;1.73;;;1.53;;
18142;SDS011;9197;50.930;3.140;2024-01-16T06:44:39;3.63;;;1.80;;
18142;SDS011;9197;50.930;3.140;2024-01-16T06:47:06;3.40;;;2.03;;
18142;SDS011;9197;50.930;3.140;2024-01-16T06:49:33;3.37;;;2.53;;
18142;SDS011;9197;50.930;3.140;2024-01-16T06:52:01;7.10;;;2.13;;
18142;SDS011;9197;50.930;3.140;2024-01-16T06:54:28;5.33;;;2.40;;
18142;SDS011;9197;50.930;3.140;2024-01-16T06:56:55;4.10;;;2.10;;
18142;SDS011;9197;50.930;3.140;2024-01-16T06:59:24;4.03;;;2.43;;
18142;SDS011;9197;50.930;3.140;2024-01-16T07:01:51;4.53;;;3.00;;
18142;SDS011;9197;50.930;3.140;2024-01-16T07:04:20;6.30;;;2.40;;
18142;SDS011;9197;50.930;3.140;2024-01-16T07:06:47;3.27;;;1.83;;
18142;SDS011;9197;50.930;3.140;2024-01-16T07:09:14;6.90;;;3.80;;
18142;SDS011;9197;50.930;3.140;2024-01-16T07:11:43;9.63;;;2.93;;
18142;SDS011;9197;50.930;3.140;2024-01-16T07:14:10;2.97;;;2.27;;
18142;SDS011;9197;50.930;3.140;2024-01-16T07:16:39;4.00;;;2.77;;
18142;SDS011;9197;50.930;3.140;2024-01-16T07:19:06;4.33;;;2.20;;
18142;SDS011;9197;50.930;3.140;2024-01-16T07:21:33;7.73;;;2.70;;
18142;SDS011;9197;50.930;3.140;2024-01-16T07:24:00;5.23;;;2.23;;
18142;SDS011;9197;50.930;3.140;2024-01-16T07:26:28;7.30;;;2.50;;
18142;SDS011;9197;50.930;3.140;2024-01-16T07:28:55;5.00;;;2.50;;
18142;SDS011;9197;50.930;3.140;2024-01-16T07:31:23;5.73;;;2.17;;
18142;SDS011;9197;50.930;3.140;2024-01-16T07:33:51;8.20;;;3.13;;
18142;SDS011;9197;50.930;3.140;2024-01-16T07:36:18;5.17;;;2.47;;
18142;SDS011;9197;50.930;3.140;2024-01-16T07:38:46;2.73;;;2.00;;
18142;SDS011;9197;50.930;3.140;2024-01-16T07:41:13;6.30;;;2.80;;
18142;SDS011;9197;50.930;3.140;2024-01-16T07:43:40;7.50;;;2.77;;
18142;SDS011;9197;50.930;3.140;2024-01-16T07:46:07;3.53;;;2.00;;
18142;SDS011;9197;50.930;3.140;2024-01-16T07:48:34;3.57;;;2.33;;
18142;SDS011;9197;50.930;3.140;2024-01-16T07:51:04;4.43;;;2.10;;
18142;SDS011;9197;50.930;3.140;2024-01-16T07:53:32;3.17;;;2.23;;
18142;SDS011;9197;50.930;3.140;2024-01-16T07:55:59;6.23;;;2.63;;
18142;SDS011;9197;50.930;3.140;2024-01-16T07:58:26;7.77;;;2.60;;
18142;SDS011;9197;50.930;3.140;2024-01-16T08:00:53;5.53;;;2.53;;
18142;SDS011;9197;50.930;3.140;2024-01-16T08:03:20;8.77;;;3.00;;
18142;SDS011;9197;50.930;3.140;2024-01-16T08:05:48;2.53;;;2.33;;
18142;SDS011;9197;50.930;3.140;2024-01-16T08:08:16;8.57;;;3.10;;
18142;SDS011;9197;50.930;3.140;2024-01-16T08:10:44;9.73;;;3.40;;
18142;SDS011;9197;50.930;3.140;2024-01-16T08:13:11;6.93;;;2.93;;
18142;SDS011;9197;50.930;3.140;2024-01-16T08:15:39;6.57;;;2.30;;
18142;SDS011;9197;50.930;3.140;2024-01-16T08:18:06;8.30;;;3.07;;
18142;SDS011;9197;50.930;3.140;2024-01-16T08:20:33;9.60;;;3.13;;
18142;SDS011;9197;50.930;3.140;2024-01-16T08:23:00;9.50;;;2.53;;
18142;SDS011;9197;50.930;3.140;2024-01-16T08:25:29;6.30;;;2.47;;
18142;SDS011;9197;50.930;3.140;2024-01-16T08:27:57;4.73;;;2.87;;
18142;SDS011;9197;50.930;3.140;2024-01-16T08:30:26;4.80;;;2.90;;
18142;SDS011;9197;50.930;3.140;2024-01-16T08:32:53;4.97;;;2.17;;
18142;SDS011;9197;50.930;3.140;2024-01-16T08:35:20;5.40;;;2.30;;
18142;SDS011;9197;50.930;3.140;2024-01-16T08:37:48;6.97;;;3.20;;
18142;SDS011;9197;50.930;3.140;2024-01-16T08:40:15;8.10;;;2.60;;
18142;SDS011;9197;50.930;3.140;2024-01-16T08:42:44;3.67;;;3.00;;
18142;SDS011;9197;50.930;3.140;2024-01-16T08:45:11;9.00;;;3.23;;
18142;SDS011;9197;50.930;3.140;2024-01-16T08:47:38;6.57;;;2.37;;
18142;SDS011;9197;50.930;3.140;2024-01-16T08:50:06;4.40;;;2.43;;
18142;SDS011;9197;50.930;3.140;2024-01-16T08:52:34;4.40;;;2.83;;
18142;SDS011;9197;50.930;3.140;2024-01-16T08:55:02;8.67;;;3.00;;
18142;SDS011;9197;50.930;3.140;2024-01-16T08:57:29;8.13;;;3.20;;
18142;SDS011;9197;50.930;3.140;2024-01-16T08:59:58;6.47;;;3.23;;
18142;SDS011;9197;50.930;3.140;2024-01-16T09:02:25;12.43;;;4.07;;
18142;SDS011;9197;50.930;3.140;2024-01-16T09:04:54;10.07;;;3.70;;
18142;SDS011;9197;50.930;3.140;2024-01-16T09:07:21;8.47;;;3.37;;
18142;SDS011;9197;50.930;3.140;2024-01-16T09:09:48;5.77;;;3.50;;
18142;SDS011;9197;50.930;3.140;2024-01-16T09:12:15;5.37;;;3.67;;
18142;SDS011;9197;50.930;3.140;2024-01-16T09:14:43;6.47;;;3.83;;
18142;SDS011;9197;50.930;3.140;2024-01-16T09:17:11;11.57;;;3.87;;
18142;SDS011;9197;50.930;3.140;2024-01-16T09:19:39;7.03;;;4.37;;
18142;SDS011;9197;50.930;3.140;2024-01-16T09:22:07;11.17;;;3.50;;
18142;SDS011;9197;50.930;3.140;2024-01-16T09:24:34;7.00;;;3.53;;
18142;SDS011;9197;50.930;3.140;2024-01-16T09:27:01;7.47;;;3.07;;
18142;SDS011;9197;50.930;3.140;2024-01-16T09:29:31;6.63;;;3.73;;
18142;SDS011;9197;50.930;3.140;2024-01-16T09:31:58;9.30;;;3.70;;
18142;SDS011;9197;50.930;3.140;2024-01-16T09:34:28;5.27;;;4.00;;
18142;SDS011;9197;50.930;3.140;2024-01-16T09:36:55;11.07;;;3.60;;
18142;SDS011;9197;50.930;3.140;2024-01-16T09:39:24;7.07;;;4.23;;
18142;SDS011;9197;50.930;3.140;2024-01-16T09:41:52;9.07;;;4.17;;
18142;SDS011;9197;50.930;3.140;2024-01-16T09:44:19;7.67;;;4.07;;
18142;SDS011;9197;50.930;3.140;2024-01-16T09:46:46;12.33;;;4.10;;
18142;SDS011;9197;50.930;3.140;2024-01-16T09:49:15;6.77;;;4.70;;
18142;SDS011;9197;50.930;3.140;2024-01-16T09:51:44;9.03;;;4.47;;
18142;SDS011;9197;50.930;3.140;2024-01-16T09:54:11;8.57;;;4.03;;
18142;SDS011;9197;50.930;3.140;2024-01-16T09:56:39;7.43;;;4.53;;
18142;SDS011;9197;50.930;3.140;2024-01-16T09:59:07;6.13;;;3.87;;
18142;SDS011;9197;50.930;3.140;2024-01-16T10:01:35;5.90;;;3.40;;
18142;SDS011;9197;50.930;3.140;2024-01-16T10:04:03;7.80;;;4.63;;
18142;SDS011;9197;50.930;3.140;2024-01-16T10:06:31;5.33;;;3.40;;
18142;SDS011;9197;50.930;3.140;2024-01-16T10:09:00;5.90;;;3.70;;
18142;SDS011;9197;50.930;3.140;2024-01-16T10:11:27;6.40;;;4.00;;
18142;SDS011;9197;50.930;3.140;2024-01-16T10:13:55;11.80;;;4.00;;
18142;SDS011;9197;50.930;3.140;2024-01-16T10:16:23;9.70;;;4.00;;
18142;SDS011;9197;50.930;3.140;2024-01-16T10:18:52;6.77;;;3.73;;
18142;SDS011;9197;50.930;3.140;2024-01-16T10:21:30;8.33;;;3.63;;
18142;SDS011;9197;50.930;3.140;2024-01-16T10:23:59;9.77;;;4.13;;
18142;SDS011;9197;50.930;3.140;2024-01-16T10:26:38;6.87;;;3.20;;
18142;SDS011;9197;50.930;3.140;2024-01-16T10:29:05;8.33;;;3.57;;
18142;SDS011;9197;50.930;3.140;2024-01-16T10:31:33;7.53;;;3.90;;
18142;SDS011;9197;50.930;3.140;2024-01-16T10:34:00;5.20;;;3.67;;
18142;SDS011;9197;50.930;3.140;2024-01-16T10:36:28;6.13;;;4.10;;
18142;SDS011;9197;50.930;3.140;2024-01-16T10:39:02;6.63;;;3.70;;
18142;SDS011;9197;50.930;3.140;2024-01-16T10:41:31;7.87;;;3.40;;
18142;SDS011;9197;50.930;3.140;2024-01-16T10:44:03;6.40;;;3.93;;
18142;SDS011;9197;50.930;3.140;2024-01-16T10:46:32;6.33;;;3.63;;
18142;SDS011;9197;50.930;3.140;2024-01-16T10:48:59;6.27;;;3.00;;
18142;SDS011;9197;50.930;3.140;2024-01-16T10:51:27;6.77;;;3.83;;
18142;SDS011;9197;50.930;3.140;2024-01-16T10:53:56;8.77;;;4.30;;
18142;SDS011;9197;50.930;3.140;2024-01-16T10:56:25;4.23;;;3.40;;
18142;SDS011;9197;50.930;3.140;2024-01-16T10:58:57;6.03;;;3.43;;
18142;SDS011;9197;50.930;3.140;2024-01-16T11:01:26;9.10;;;3.73;;
18142;SDS011;9197;50.930;3.140;2024-01-16T11:03:55;7.10;;;3.30;;
18142;SDS011;9197;50.930;3.140;2024-01-16T11:06:24;5.67;;;3.50;;
18142;SDS011;9197;50.930;3.140;2024-01-16T11:08:52;5.30;;;3.43;;
18142;SDS011;9197;50.930;3.140;2024-01-16T11:11:19;4.63;;;2.30;;
18142;SDS011;9197;50.930;3.140;2024-01-16T11:13:47;5.10;;;3.03;;
18142;SDS011;9197;50.930;3.140;2024-01-16T11:16:16;8.27;;;4.07;;
18142;SDS011;9197;50.930;3.140;2024-01-16T11:18:44;6.07;;;2.50;;
18142;SDS011;9197;50.930;3.140;2024-01-16T11:21:11;8.93;;;3.33;;
18142;SDS011;9197;50.930;3.140;2024-01-16T11:23:40;7.30;;;3.07;;
18142;SDS011;9197;50.930;3.140;2024-01-16T11:26:27;5.80;;;3.50;;
18142;SDS011;9197;50.930;3.140;2024-01-16T11:28:57;7.40;;;4.27;;
18142;SDS011;9197;50.930;3.140;2024-01-16T11:31:30;8.83;;;3.87;;
18142;SDS011;9197;50.930;3.140;2024-01-16T11:33:57;7.23;;;3.70;;
18142;SDS011;9197;50.930;3.140;2024-01-16T11:39:25;7.60;;;4.43;;
18142;SDS011;9197;50.930;3.140;2024-01-16T11:41:53;6.60;;;3.73;;
18142;SDS011;9197;50.930;3.140;2024-01-16T11:44:36;9.30;;;3.33;;
18142;SDS011;9197;50.930;3.140;2024-01-16T11:47:05;7.33;;;3.67;;
18142;SDS011;9197;50.930;3.140;2024-01-16T11:49:33;9.60;;;4.00;;
18142;SDS011;9197;50.930;3.140;2024-01-16T11:52:01;10.63;;;3.53;;
18142;SDS011;9197;50.930;3.140;2024-01-16T11:54:28;7.07;;;3.80;;
18142;SDS011;9197;50.930;3.140;2024-01-16T11:59:42;8.73;;;3.97;;
18142;SDS011;9197;50.930;3.140;2024-01-16T12:02:17;10.70;;;4.30;;
18142;SDS011;9197;50.930;3.140;2024-01-16T12:04:51;5.47;;;3.67;;
18142;SDS011;9197;50.930;3.140;2024-01-16T12:07:19;7.50;;;3.23;;
18142;SDS011;9197;50.930;3.140;2024-01-16T12:09:47;8.93;;;3.00;;
18142;SDS011;9197;50.930;3.140;2024-01-16T12:12:14;11.40;;;4.30;;
18142;SDS011;9197;50.930;3.140;2024-01-16T12:14:50;9.27;;;4.40;;
18142;SDS011;9197;50.930;3.140;2024-01-16T12:17:20;7.20;;;2.97;;
18142;SDS011;9197;50.930;3.140;2024-01-16T12:19:47;4.50;;;3.20;;
18142;SDS011;9197;50.930;3.140;2024-01-16T12:22:15;3.53;;;2.60;;
18142;SDS011;9197;50.930;3.140;2024-01-16T12:24:43;7.07;;;2.80;;
18142;SDS011;9197;50.930;3.140;2024-01-16T12:27:11;3.90;;;2.10;;
18142;SDS011;9197;50.930;3.140;2024-01-16T12:29:40;4.57;;;2.73;;
18142;SDS011;9197;50.930;3.140;2024-01-16T12:32:08;6.43;;;2.87;;
18142;SDS011;9197;50.930;3.140;2024-01-16T12:34:44;3.07;;;2.37;;
18142;SDS011;9197;50.930;3.140;2024-01-16T12:37:11;5.47;;;2.87;;
18142;SDS011;9197;50.930;3.140;2024-01-16T12:39:39;3.93;;;2.37;;
18142;SDS011;9197;50.930;3.140;2024-01-16T12:42:06;5.33;;;2.87;;
18142;SDS011;9197;50.930;3.140;2024-01-16T12:44:35;4.77;;;2.30;;
18142;SDS011;9197;50.930;3.140;2024-01-16T12:47:02;4.27;;;2.87;;
18142;SDS011;9197;50.930;3.140;2024-01-16T12:49:30;3.57;;;2.67;;
18142;SDS011;9197;50.930;3.140;2024-01-16T12:54:45;3.80;;;2.17;;
18142;SDS011;9197;50.930;3.140;2024-01-16T12:57:16;7.90;;;2.87;;
18142;SDS011;9197;50.930;3.140;2024-01-16T12:59:44;7.77;;;2.70;;
18142;SDS011;9197;50.930;3.140;2024-01-16T13:02:19;6.57;;;2.70;;
18142;SDS011;9197;50.930;3.140;2024-01-16T13:04:46;6.23;;;2.20;;
18142;SDS011;9197;50.930;3.140;2024-01-16T13:07:15;6.33;;;2.47;;
18142;SDS011;9197;50.930;3.140;2024-01-16T13:09:43;4.97;;;2.10;;
18142;SDS011;9197;50.930;3.140;2024-01-16T13:12:18;2.03;;;1.60;;
18142;SDS011;9197;50.930;3.140;2024-01-16T13:14:46;6.33;;;2.27;;
18142;SDS011;9197;50.930;3.140;2024-01-16T13:17:13;3.63;;;1.90;;
18142;SDS011;9197;50.930;3.140;2024-01-16T13:19:40;3.47;;;2.00;;
18142;SDS011;9197;50.930;3.140;2024-01-16T13:22:08;3.53;;;1.77;;
18142;SDS011;9197;50.930;3.140;2024-01-16T13:24:35;4.37;;;1.97;;
18142;SDS011;9197;50.930;3.140;2024-01-16T13:27:03;8.20;;;2.20;;
18142;SDS011;9197;50.930;3.140;2024-01-16T13:29:33;3.57;;;2.23;;
18142;SDS011;9197;50.930;3.140;2024-01-16T13:32:04;7.37;;;2.37;;
18142;SDS011;9197;50.930;3.140;2024-01-16T13:34:31;4.97;;;2.23;;
18142;SDS011;9197;50.930;3.140;2024-01-16T13:36:59;5.47;;;2.57;;
18142;SDS011;9197;50.930;3.140;2024-01-16T13:39:28;5.37;;;2.47;;
18142;SDS011;9197;50.930;3.140;2024-01-16T13:41:57;9.97;;;2.53;;
18142;SDS011;9197;50.930;3.140;2024-01-16T13:44:24;5.80;;;2.07;;
18142;SDS011;9197;50.930;3.140;2024-01-16T13:46:54;4.90;;;1.83;;
18142;SDS011;9197;50.930;3.140;2024-01-16T13:49:21;7.47;;;2.60;;
18142;SDS011;9197;50.930;3.140;2024-01-16T13:51:48;10.13;;;2.23;;
18142;SDS011;9197;50.930;3.140;2024-01-16T13:54:16;3.80;;;1.97;;
18142;SDS011;9197;50.930;3.140;2024-01-16T13:56:43;2.30;;;1.77;;
18142;SDS011;9197;50.930;3.140;2024-01-16T13:59:12;3.93;;;1.63;;
18142;SDS011;9197;50.930;3.140;2024-01-16T14:01:39;3.30;;;1.80;;
18142;SDS011;9197;50.930;3.140;2024-01-16T14:04:07;5.10;;;1.30;;
18142;SDS011;9197;50.930;3.140;2024-01-16T14:06:35;2.20;;;1.17;;
18142;SDS011;9197;50.930;3.140;2024-01-16T14:09:02;3.73;;;1.77;;
18142;SDS011;9197;50.930;3.140;2024-01-16T14:11:29;2.50;;;1.50;;
18142;SDS011;9197;50.930;3.140;2024-01-16T14:13:57;3.77;;;1.83;;
18142;SDS011;9197;50.930;3.140;2024-01-16T14:16:27;3.40;;;1.60;;
18142;SDS011;9197;50.930;3.140;2024-01-16T14:18:55;0.70;;;0.70;;
18142;SDS011;9197;50.930;3.140;2024-01-16T14:21:23;2.47;;;1.50;;
18142;SDS011;9197;50.930;3.140;2024-01-16T14:23:51;4.87;;;2.13;;
18142;SDS011;9197;50.930;3.140;2024-01-16T14:26:18;3.97;;;2.73;;
18142;SDS011;9197;50.930;3.140;2024-01-16T14:28:45;2.67;;;1.20;;
18142;SDS011;9197;50.930;3.140;2024-01-16T14:31:15;2.27;;;0.80;;
18142;SDS011;9197;50.930;3.140;2024-01-16T14:33:42;4.27;;;1.27;;
18142;SDS011;9197;50.930;3.140;2024-01-16T14:36:09;2.93;;;2.03;;
18142;SDS011;9197;50.930;3.140;2024-01-16T14:38:38;3.33;;;1.33;;
18142;SDS011;9197;50.930;3.140;2024-01-16T14:41:05;2.30;;;0.90;;
18142;SDS011;9197;50.930;3.140;2024-01-16T14:43:34;2.60;;;1.57;;
18142;SDS011;9197;50.930;3.140;2024-01-16T14:46:01;2.60;;;1.17;;
18142;SDS011;9197;50.930;3.140;2024-01-16T14:48:28;2.70;;;1.27;;
18142;SDS011;9197;50.930;3.140;2024-01-16T14:50:57;3.17;;;1.70;;
18142;SDS011;9197;50.930;3.140;2024-01-16T14:53:26;2.47;;;1.47;;
18142;SDS011;9197;50.930;3.140;2024-01-16T14:55:55;3.10;;;1.57;;
18142;SDS011;9197;50.930;3.140;2024-01-16T14:58:22;4.77;;;1.70;;
18142;SDS011;9197;50.930;3.140;2024-01-16T15:00:50;5.43;;;2.67;;
18142;SDS011;9197;50.930;3.140;2024-01-16T15:03:18;4.17;;;2.40;;
18142;SDS011;9197;50.930;3.140;2024-01-16T15:05:46;7.77;;;2.37;;
18142;SDS011;9197;50.930;3.140;2024-01-16T15:08:13;6.27;;;2.27;;
18142;SDS011;9197;50.930;3.140;2024-01-16T15:10:40;2.63;;;2.00;;
18142;SDS011;9197;50.930;3.140;2024-01-16T15:13:09;4.67;;;2.20;;